Time;durP1;ratioP1;P1;durP2;ratioP2;P2;SDS_P1;SDS_P2;PMS_P1;PMS_P2;Temp;Humidity;BMP_temperature;BMP_pressure;BME280_temperature;BME280_humidity;BME280_pressure;Samples;Min_cycle;Max_cycle;Signal;HPM_P1;HPM_P2
2021/04/11 00:01:01;;;;;;;0.32;0.32;;;6.10;99.90;;;;;;5075584;28;20210;-78
2021/04/11 00:03:28;;;;;;;2.90;1.13;;;6.20;99.90;;;;;;5075877;28;20167;-79
2021/04/11 00:05:54;;;;;;;0.68;0.68;;;6.10;99.90;;;;;;5075956;28;20190;-79
2021/04/11 00:08:21;;;;;;;4.65;1.35;;;6.20;99.90;;;;;;5075989;28;20167;-78
2021/04/11 00:10:56;;;;;;;0.70;0.70;;;6.20;99.90;;;;;;5075961;28;20162;-78
2021/04/11 00:13:28;;;;;;;1.08;1.08;;;6.30;99.90;;;;;;5075813;28;20190;-78
2021/04/11 00:15:54;;;;;;;0.85;0.85;;;6.10;99.90;;;;;;5075800;28;20532;-77
2021/04/11 00:18:20;;;;;;;1.65;1.35;;;6.10;99.90;;;;;;5075649;28;20174;-77
2021/04/11 00:20:45;;;;;;;0.60;0.60;;;6.00;99.90;;;;;;5075609;28;20536;-77
2021/04/11 00:23:12;;;;;;;0.45;0.45;;;5.90;99.90;;;;;;5075629;28;20634;-77
2021/04/11 00:25:40;;;;;;;0.43;0.43;;;5.80;99.90;;;;;;5074165;28;20182;-77
2021/04/11 00:28:07;;;;;;;0.20;0.20;;;5.60;99.90;;;;;;5075153;28;20163;-77
2021/04/11 00:30:33;;;;;;;0.45;0.45;;;5.70;99.90;;;;;;5073730;28;20513;-77
2021/04/11 00:33:00;;;;;;;1.45;0.82;;;5.70;99.90;;;;;;5074141;28;20550;-77
2021/04/11 00:35:27;;;;;;;0.73;0.73;;;5.80;99.90;;;;;;5075440;28;20683;-77
2021/04/11 00:37:53;;;;;;;3.40;1.10;;;5.80;99.90;;;;;;5075676;28;20238;-77
2021/04/11 00:40:22;;;;;;;1.20;1.20;;;5.90;99.90;;;;;;5075594;28;20653;-77
2021/04/11 00:42:54;;;;;;;1.00;1.00;;;6.00;99.90;;;;;;5073814;28;20175;-77
2021/04/11 00:45:51;;;;;;;2.75;1.65;;;6.10;99.90;;;;;;5073739;28;20158;-77
2021/04/11 00:48:20;;;;;;;1.05;1.05;;;6.30;99.90;;;;;;5073698;28;20167;-77
2021/04/11 00:50:55;;;;;;;2.50;1.50;;;6.10;99.90;;;;;;5073553;28;20693;-77
2021/04/11 00:53:21;;;;;;;0.43;0.43;;;6.10;99.90;;;;;;5074951;28;20649;-77
2021/04/11 00:55:48;;;;;;;5.10;1.67;;;6.00;99.90;;;;;;5074823;28;20186;-78
2021/04/11 00:58:14;;;;;;;0.77;0.77;;;6.10;99.90;;;;;;5073514;28;20253;-77
2021/04/11 01:00:39;;;;;;;0.95;0.95;;;6.10;99.90;;;;;;5074625;28;20285;-78
2021/04/11 01:05:41;;;;;;;0.93;0.93;;;6.00;99.90;;;;;;5053045;28;20222;-77
2021/04/11 01:08:12;;;;;;;1.00;0.98;;;6.00;99.90;;;;;;5053233;28;20536;-78
2021/04/11 01:10:45;;;;;;;0.50;0.50;;;5.90;99.90;;;;;;5054486;28;20148;-78
2021/04/11 01:13:11;;;;;;;0.40;0.40;;;6.00;99.90;;;;;;5054350;28;20242;-77
2021/04/11 01:15:37;;;;;;;0.63;0.63;;;5.90;99.90;;;;;;5053080;28;20226;-78
2021/04/11 01:18:04;;;;;;;0.47;0.47;;;5.60;99.90;;;;;;5054394;28;20216;-77
2021/04/11 01:20:31;;;;;;;0.80;0.80;;;5.70;99.90;;;;;;5054240;28;20156;-77
2021/04/11 01:22:59;;;;;;;2.25;1.08;;;5.40;99.90;;;;;;5054242;28;20156;-78
2021/04/11 01:25:31;;;;;;;0.47;0.47;;;5.50;99.90;;;;;;5052862;28;20592;-78
2021/04/11 01:27:58;;;;;;;0.38;0.38;;;5.50;99.90;;;;;;5052868;28;20164;-78
2021/04/11 01:30:29;;;;;;;1.75;1.42;;;5.30;99.90;;;;;;5054148;28;20585;-77
2021/04/11 01:32:56;;;;;;;1.20;1.02;;;5.40;99.90;;;;;;5054080;28;20214;-77
2021/04/11 01:35:24;;;;;;;0.40;0.40;;;5.40;99.90;;;;;;5053982;28;20172;-77
2021/04/11 01:37:53;;;;;;;0.20;0.20;;;5.40;99.90;;;;;;5053919;28;20178;-77
2021/04/11 01:40:24;;;;;;;0.70;0.70;;;5.20;99.90;;;;;;5053906;28;20171;-77
2021/04/11 01:42:50;;;;;;;1.20;1.10;;;5.30;99.90;;;;;;5053634;28;20175;-78
2021/04/11 01:45:16;;;;;;;0.20;0.20;;;5.20;99.90;;;;;;5052662;28;20182;-77
2021/04/11 01:47:42;;;;;;;0.20;0.20;;;5.20;99.90;;;;;;5052530;28;20167;-77
2021/04/11 01:50:10;;;;;;;0.85;0.75;;;5.30;99.90;;;;;;5052579;28;20176;-78
2021/04/11 01:52:37;;;;;;;0.60;0.60;;;5.30;99.90;;;;;;5053632;28;20213;-78
2021/04/11 01:55:04;;;;;;;0.25;0.25;;;5.30;99.90;;;;;;5053601;28;20175;-77
2021/04/11 01:57:32;;;;;;;0.40;0.40;;;5.30;99.90;;;;;;5052263;28;20219;-77
2021/04/11 02:00:12;;;;;;;0.75;0.75;;;5.40;99.90;;;;;;5053633;28;20152;-78
2021/04/11 02:02:38;;;;;;;1.20;1.15;;;5.20;99.90;;;;;;5053445;28;20170;-77
2021/04/11 02:05:17;;;;;;;0.93;0.93;;;5.40;99.90;;;;;;5053341;28;20679;-77
2021/04/11 02:07:44;;;;;;;3.10;0.57;;;5.40;99.90;;;;;;5053482;28;20163;-77
2021/04/11 02:10:11;;;;;;;1.15;0.95;;;5.20;99.90;;;;;;5053441;28;20555;-78
2021/04/11 02:12:37;;;;;;;0.77;0.63;;;5.10;99.90;;;;;;5053278;28;20286;-77
2021/04/11 02:15:10;;;;;;;0.70;0.70;;;5.20;99.90;;;;;;5052026;28;20524;-77
2021/04/11 02:17:37;;;;;;;1.77;1.17;;;5.30;99.90;;;;;;5051893;28;20252;-78
2021/04/11 02:20:05;;;;;;;0.32;0.32;;;5.50;99.90;;;;;;5052047;28;20244;-78
2021/04/11 02:22:32;;;;;;;0.77;0.77;;;5.60;99.90;;;;;;5053224;28;20635;-78
2021/04/11 02:24:59;;;;;;;1.20;1.20;;;5.60;99.90;;;;;;5053277;28;20196;-77
2021/04/11 02:27:25;;;;;;;0.63;0.63;;;5.50;99.90;;;;;;5053083;28;20277;-77
2021/04/11 02:29:50;;;;;;;2.53;1.52;;;5.60;99.90;;;;;;5053292;28;20191;-77
2021/04/11 02:32:17;;;;;;;0.80;0.80;;;5.70;99.90;;;;;;5053046;28;20235;-78
2021/04/11 02:34:46;;;;;;;4.72;3.42;;;5.60;99.90;;;;;;5053386;28;20202;-78
2021/04/11 02:37:21;;;;;;;1.65;1.33;;;5.60;99.90;;;;;;5051772;28;20217;-78
2021/04/11 02:39:49;;;;;;;1.75;1.23;;;5.50;99.90;;;;;;5051767;28;20171;-78
2021/04/11 02:42:20;;;;;;;1.00;1.00;;;5.50;99.90;;;;;;5051709;28;20174;-78
2021/04/11 02:44:48;;;;;;;1.40;1.40;;;5.40;99.90;;;;;;5053023;28;20693;-77
2021/04/11 02:47:15;;;;;;;1.17;1.08;;;5.30;99.90;;;;;;5051654;28;20194;-78
2021/04/11 02:49:43;;;;;;;0.80;0.68;;;5.20;99.90;;;;;;5052953;28;20581;-77
2021/04/11 02:52:18;;;;;;;1.30;1.30;;;5.10;99.90;;;;;;5054009;28;20191;-77
2021/04/11 02:54:44;;;;;;;2.85;1.67;;;4.90;99.90;;;;;;5055828;28;20205;-77
2021/04/11 02:57:10;;;;;;;0.22;0.22;;;4.90;99.90;;;;;;5055689;28;20183;-77
2021/04/11 02:59:37;;;;;;;1.13;1.08;;;4.90;99.90;;;;;;5056965;28;20178;-78
2021/04/11 03:02:04;;;;;;;1.10;1.10;;;5.00;99.90;;;;;;5056973;28;20524;-78
2021/04/11 03:04:29;;;;;;;0.60;0.60;;;5.10;99.90;;;;;;5056632;28;20230;-77
2021/04/11 03:06:59;;;;;;;3.63;0.65;;;5.00;99.90;;;;;;5057086;28;20195;-77
2021/04/11 03:09:31;;;;;;;1.63;1.08;;;5.00;99.90;;;;;;5056814;28;20167;-78
2021/04/11 03:11:58;;;;;;;4.55;1.40;;;4.90;99.90;;;;;;5056630;28;20199;-77
2021/04/11 03:14:28;;;;;;;0.30;0.30;;;4.90;99.90;;;;;;5056741;28;20704;-77
2021/04/11 03:16:55;;;;;;;0.50;0.50;;;4.90;99.90;;;;;;5056715;28;20187;-78
2021/04/11 03:19:34;;;;;;;0.67;0.67;;;4.70;99.90;;;;;;5056606;28;20171;-77
2021/04/11 03:22:01;;;;;;;1.35;1.02;;;4.70;99.90;;;;;;5056535;28;20244;-78
2021/04/11 03:24:26;;;;;;;2.67;1.98;;;4.90;99.90;;;;;;5056468;28;20183;-77
2021/04/11 03:26:57;;;;;;;0.40;0.40;;;5.00;99.90;;;;;;5055085;28;20194;-77
2021/04/11 03:29:48;;;;;;;0.73;0.73;;;5.10;99.90;;;;;;5055079;28;20171;-78
2021/04/11 03:32:28;;;;;;;1.23;0.73;;;5.10;99.90;;;;;;5056184;28;20206;-77
2021/04/11 03:34:56;;;;;;;0.90;0.90;;;5.00;99.90;;;;;;5056298;28;20533;-77
2021/04/11 03:37:24;;;;;;;0.82;0.82;;;5.00;99.90;;;;;;5056220;28;20187;-77
2021/04/11 03:39:50;;;;;;;1.73;1.23;;;5.00;99.90;;;;;;5056178;28;20163;-77
2021/04/11 03:42:19;;;;;;;5.57;1.00;;;5.00;99.90;;;;;;5054973;28;20175;-78
2021/04/11 03:44:45;;;;;;;1.37;0.77;;;5.00;99.90;;;;;;5056138;28;20168;-77
2021/04/11 03:47:22;;;;;;;1.02;1.02;;;5.00;99.90;;;;;;5055992;28;20195;-77
2021/04/11 03:49:54;;;;;;;1.05;1.05;;;4.90;99.90;;;;;;5056093;28;20151;-77
2021/04/11 03:52:30;;;;;;;0.95;0.95;;;4.90;99.90;;;;;;5055950;28;20312;-77
2021/04/11 03:54:59;;;;;;;0.45;0.45;;;5.00;99.90;;;;;;5055989;28;20167;-78
2021/04/11 03:57:29;;;;;;;0.52;0.52;;;5.00;99.90;;;;;;5055863;28;20195;-77
2021/04/11 04:00:03;;;;;;;4.05;0.98;;;4.90;99.90;;;;;;5055886;28;20243;-77
2021/04/11 04:02:32;;;;;;;0.30;0.30;;;5.00;99.90;;;;;;5054396;28;20181;-77
2021/04/11 04:04:59;;;;;;;0.85;0.85;;;4.90;99.90;;;;;;5054379;28;20211;-77
2021/04/11 04:07:25;;;;;;;0.30;0.30;;;4.90;99.90;;;;;;5054214;28;20195;-77
2021/04/11 04:09:58;;;;;;;0.57;0.57;;;5.00;99.90;;;;;;5055709;28;20220;-78
2021/04/11 04:12:42;;;;;;;0.52;0.52;;;5.10;99.90;;;;;;5055506;28;20191;-77
2021/04/11 04:15:38;;;;;;;0.70;0.70;;;5.20;99.90;;;;;;5055557;28;20167;-77
2021/04/11 04:18:10;;;;;;;0.25;0.25;;;5.20;99.90;;;;;;5055489;28;20233;-78
2021/04/11 04:20:42;;;;;;;1.75;1.55;;;5.20;99.90;;;;;;5055306;28;20163;-78
2021/04/11 04:23:17;;;;;;;1.58;1.48;;;5.30;99.90;;;;;;5055742;28;20168;-78
2021/04/11 04:26:05;;;;;;;0.95;0.95;;;5.30;99.90;;;;;;5055214;28;20186;-77
2021/04/11 04:28:42;;;;;;;0.93;0.93;;;5.00;99.90;;;;;;5055196;28;20167;-77
2021/04/11 04:31:25;;;;;;;0.50;0.50;;;5.00;99.90;;;;;;5053900;28;20634;-77
2021/04/11 04:34:03;;;;;;;0.50;0.50;;;5.00;99.90;;;;;;5055474;28;20195;-78
2021/04/11 04:36:46;;;;;;;0.90;0.77;;;5.10;99.90;;;;;;5055060;28;20191;-77
2021/04/11 04:39:54;;;;;;;1.10;0.82;;;5.10;99.90;;;;;;5055167;28;20159;-77
2021/04/11 04:42:34;;;;;;;0.77;0.77;;;5.00;99.90;;;;;;5018057;28;20210;-78
2021/04/11 04:45:37;;;;;;;2.25;1.83;;;4.90;99.90;;;;;;5055054;28;20745;-78
2021/04/11 04:48:23;;;;;;;0.80;0.80;;;4.90;99.90;;;;;;5054936;28;20171;-78
2021/04/11 04:51:12;;;;;;;0.70;0.70;;;4.90;99.90;;;;;;5054965;28;20170;-78
2021/04/11 04:53:45;;;;;;;0.73;0.73;;;5.00;99.90;;;;;;5054973;28;20568;-78
2021/04/11 04:56:20;;;;;;;0.70;0.70;;;4.80;99.90;;;;;;5054639;28;20191;-78
2021/04/11 04:58:55;;;;;;;0.40;0.40;;;4.90;99.90;;;;;;5053628;28;20178;-77
2021/04/11 05:01:24;;;;;;;0.40;0.40;;;4.70;99.90;;;;;;5054628;28;20614;-78
2021/04/11 05:03:55;;;;;;;0.20;0.20;;;4.70;99.90;;;;;;5054550;28;20249;-78
2021/04/11 05:06:34;;;;;;;0.10;0.10;;;4.80;99.90;;;;;;5054375;28;20194;-79
2021/04/11 05:09:23;;;;;;;0.40;0.40;;;4.90;99.90;;;;;;5054571;28;20210;-79
2021/04/11 05:12:04;;;;;;;0.60;0.60;;;4.90;99.90;;;;;;5054451;28;20278;-77
2021/04/11 05:14:44;;;;;;;0.52;0.52;;;5.00;99.90;;;;;;5053950;28;20262;-77
2021/04/11 05:17:35;;;;;;;0.20;0.20;;;4.90;99.90;;;;;;5054286;28;20236;-78
2021/04/11 05:20:24;;;;;;;0.40;0.40;;;4.90;99.90;;;;;;5054666;28;20166;-78
2021/04/11 05:23:11;;;;;;;0.20;0.20;;;4.90;99.90;;;;;;5054319;28;20177;-79
2021/04/11 05:25:43;;;;;;;0.75;0.75;;;4.90;99.90;;;;;;5054066;28;20175;-79
2021/04/11 05:28:16;;;;;;;0.30;0.30;;;4.90;99.90;;;;;;5054035;28;20636;-79
2021/04/11 05:30:46;;;;;;;0.30;0.30;;;4.90;99.90;;;;;;5053939;28;20646;-79
2021/04/11 05:33:18;;;;;;;0.38;0.38;;;5.10;99.90;;;;;;5052633;28;20222;-79
2021/04/11 05:35:46;;;;;;;0.70;0.70;;;5.10;99.90;;;;;;5052607;28;20234;-78
2021/04/11 05:38:45;;;;;;;2.17;1.10;;;5.10;99.90;;;;;;5052762;28;20179;-79
2021/04/11 05:41:22;;;;;;;0.20;0.20;;;5.00;99.90;;;;;;5053935;28;20167;-79
2021/04/11 05:43:57;;;;;;;0.20;0.20;;;5.00;99.90;;;;;;5053794;28;20234;-79
2021/04/11 05:46:30;;;;;;;0.20;0.20;;;4.90;99.90;;;;;;5053667;28;20194;-79
2021/04/11 05:49:04;;;;;;;0.38;0.38;;;4.90;99.90;;;;;;5053744;28;20170;-78
2021/04/11 05:51:32;;;;;;;2.17;0.50;;;4.90;99.90;;;;;;5053625;28;20626;-79
2021/04/11 05:54:18;;;;;;;0.50;0.50;;;4.80;99.90;;;;;;5053492;28;20185;-79
2021/04/11 05:56:48;;;;;;;0.30;0.30;;;4.80;99.90;;;;;;5041573;28;20206;-78
2021/04/11 05:59:20;;;;;;;0.43;0.43;;;4.90;99.90;;;;;;5052240;28;20684;-79
2021/04/11 06:02:00;;;;;;;1.03;0.77;;;5.00;99.90;;;;;;5053597;28;20167;-78
2021/04/11 06:04:35;;;;;;;0.40;0.40;;;4.90;99.90;;;;;;5053460;28;20261;-78
2021/04/11 06:07:07;;;;;;;0.20;0.20;;;4.90;99.90;;;;;;5053310;28;20248;-78
2021/04/11 06:09:41;;;;;;;0.28;0.28;;;5.00;99.90;;;;;;5053391;28;20197;-79
2021/04/11 06:12:20;;;;;;;0.22;0.22;;;4.90;99.90;;;;;;5053396;28;20186;-79
2021/04/11 06:15:08;;;;;;;0.73;0.73;;;5.00;99.90;;;;;;5054981;28;20185;-79
2021/04/11 06:17:34;;;;;;;0.32;0.32;;;5.00;99.90;;;;;;5065397;28;20218;-78
2021/04/11 06:20:00;;;;;;;0.60;0.60;;;5.00;99.90;;;;;;5073432;28;20154;-79
2021/04/11 06:22:45;;;;;;;0.50;0.50;;;5.00;99.90;;;;;;5073142;28;20170;-79
2021/04/11 06:25:20;;;;;;;0.65;0.65;;;5.10;99.90;;;;;;5073240;28;20174;-78
2021/04/11 06:28:16;;;;;;;0.65;0.65;;;5.00;99.90;;;;;;5072372;28;20166;-79
2021/04/11 06:30:53;;;;;;;0.20;0.20;;;5.20;99.90;;;;;;5073141;28;20184;-79
2021/04/11 06:33:26;;;;;;;0.40;0.40;;;5.10;99.90;;;;;;5073201;28;20205;-79
2021/04/11 06:36:28;;;;;;;0.60;0.60;;;5.10;99.90;;;;;;5071696;28;20186;-79
2021/04/11 06:38:59;;;;;;;0.20;0.20;;;5.20;99.90;;;;;;5030719;28;20235;-78
2021/04/11 06:41:24;;;;;;;0.32;0.32;;;5.20;99.90;;;;;;5071680;28;20635;-80
2021/04/11 06:43:53;;;;;;;0.63;0.63;;;5.10;99.90;;;;;;5072844;28;20245;-77
2021/04/11 06:46:38;;;;;;;0.70;0.70;;;5.20;99.90;;;;;;5071695;28;20657;-77
2021/04/11 06:49:13;;;;;;;0.40;0.40;;;5.30;99.90;;;;;;5071469;28;20175;-77
2021/04/11 06:52:06;;;;;;;1.42;0.70;;;5.50;99.90;;;;;;5072805;28;20170;-76
2021/04/11 06:55:01;;;;;;;0.20;0.20;;;5.60;99.90;;;;;;5071430;28;20178;-76
2021/04/11 06:57:42;;;;;;;0.25;0.25;;;5.60;99.90;;;;;;5072756;28;20217;-77
2021/04/11 07:00:23;;;;;;;0.60;0.60;;;5.70;99.90;;;;;;5071397;28;20173;-77
2021/04/11 07:03:25;;;;;;;0.82;0.82;;;5.70;99.90;;;;;;5072713;28;20560;-77
2021/04/11 07:06:10;;;;;;;0.40;0.38;;;5.90;99.90;;;;;;5072618;28;20209;-79
2021/04/11 07:09:00;;;;;;;0.20;0.20;;;5.90;99.90;;;;;;5072571;28;20648;-77
2021/04/11 07:11:53;;;;;;;0.68;0.68;;;5.70;99.90;;;;;;5071251;28;20614;-76
2021/04/11 07:15:01;;;;;;;0.40;0.40;;;5.70;99.90;;;;;;5071302;28;20193;-78
2021/04/11 07:17:55;;;;;;;0.10;0.10;;;5.60;99.90;;;;;;5072379;28;20185;-77
2021/04/11 07:20:26;;;;;;;0.30;0.30;;;5.80;99.90;;;;;;5072422;28;20163;-78
2021/04/11 07:23:13;;;;;;;0.40;0.40;;;5.90;99.90;;;;;;5072455;28;20162;-77
2021/04/11 07:26:06;;;;;;;0.20;0.20;;;6.00;99.90;;;;;;5071145;28;20247;-79
2021/04/11 07:28:38;;;;;;;0.55;0.55;;;6.10;99.90;;;;;;5072481;28;20170;-78
2021/04/11 07:31:26;;;;;;;0.28;0.28;;;6.10;99.90;;;;;;5072665;28;20170;-80
2021/04/11 07:33:54;;;;;;;0.60;0.60;;;6.20;99.90;;;;;;5072574;28;20217;-78
2021/04/11 07:36:38;;;;;;;0.90;0.90;;;6.30;99.90;;;;;;5071018;28;20187;-78
2021/04/11 07:39:03;;;;;;;0.77;0.77;;;6.40;99.90;;;;;;5074684;28;20166;-78
2021/04/11 07:41:56;;;;;;;0.10;0.10;;;6.50;99.90;;;;;;5075569;28;20178;-77
2021/04/11 07:44:59;;;;;;;0.30;0.30;;;6.30;99.90;;;;;;5060615;28;20507;-78
2021/04/11 07:47:41;;;;;;;0.40;0.35;;;6.30;99.90;;;;;;5067735;28;20205;-78
2021/04/11 07:50:42;;;;;;;0.20;0.20;;;6.10;99.90;;;;;;5074585;28;20163;-78
2021/04/11 07:53:31;;;;;;;4.03;1.65;;;6.20;99.90;;;;;;5075876;28;20248;-79
2021/04/11 07:56:00;;;;;;;0.30;0.30;;;6.20;99.90;;;;;;5074540;28;20186;-79
2021/04/11 07:58:37;;;;;;;0.38;0.38;;;6.20;99.90;;;;;;5074552;28;20665;-78
2021/04/11 08:01:16;;;;;;;3.63;1.38;;;6.30;99.90;;;;;;5076060;28;20173;-78
2021/04/11 08:04:11;;;;;;;0.45;0.45;;;6.20;99.90;;;;;;5075720;28;20206;-86
2021/04/11 08:07:06;;;;;;;0.20;0.20;;;6.20;99.90;;;;;;5075192;28;20186;-78
2021/04/11 08:09:40;;;;;;;0.30;0.30;;;6.30;99.90;;;;;;5053527;28;20237;-79
2021/04/11 08:12:13;;;;;;;0.20;0.20;;;6.40;99.90;;;;;;5075593;28;20224;-79
2021/04/11 08:15:10;;;;;;;0.17;0.17;;;6.40;99.90;;;;;;5075466;28;20173;-79
2021/04/11 08:17:52;;;;;;;0.20;0.20;;;6.50;99.90;;;;;;5073253;28;20672;-79
2021/04/11 08:20:41;;;;;;;0.20;0.20;;;6.50;99.90;;;;;;5075523;28;20162;-78
2021/04/11 08:23:30;;;;;;;0.30;0.30;;;6.30;99.90;;;;;;5074319;28;20629;-79
2021/04/11 08:26:27;;;;;;;9.75;2.20;;;6.30;99.90;;;;;;5075206;28;20261;-79
2021/04/11 08:29:11;;;;;;;0.43;0.43;;;6.20;99.90;;;;;;5074100;28;20174;-81
2021/04/11 08:31:48;;;;;;;0.30;0.30;;;6.30;99.90;;;;;;5074866;28;20244;-79
2021/04/11 08:34:52;;;;;;;0.30;0.30;;;6.30;99.90;;;;;;5075506;28;20196;-79
2021/04/11 08:37:49;;;;;;;0.20;0.20;;;6.30;99.90;;;;;;5074929;28;20242;-79
2021/04/11 08:40:26;;;;;;;0.20;0.20;;;6.60;99.90;;;;;;5001803;28;20210;-79
2021/04/11 08:43:19;;;;;;;0.20;0.20;;;6.90;99.90;;;;;;5052367;28;20183;-79
2021/04/11 08:46:08;;;;;;;0.20;0.20;;;7.00;99.90;;;;;;5052527;28;20183;-79
2021/04/11 08:48:44;;;;;;;0.20;0.20;;;7.00;99.90;;;;;;5052355;28;20177;-79
2021/04/11 08:51:30;;;;;;;0.10;0.10;;;6.70;99.90;;;;;;5052957;28;20170;-78
2021/04/11 08:54:11;;;;;;;0.20;0.20;;;6.80;99.90;;;;;;5053687;28;20260;-79
2021/04/11 08:57:17;;;;;;;0.65;0.65;;;7.00;99.90;;;;;;5053803;28;20171;-79
2021/04/11 08:59:51;;;;;;;2.50;0.95;;;7.10;99.90;;;;;;5010780;28;20184;-79
2021/04/11 09:02:28;;;;;;;0.20;0.20;;;7.00;99.90;;;;;;5010985;28;20177;-79
2021/04/11 09:05:09;;;;;;;0.13;0.13;;;7.10;99.90;;;;;;5036094;28;20222;-79
2021/04/11 09:07:58;;;;;;;0.10;0.10;;;7.50;99.90;;;;;;5050630;28;20199;-80
2021/04/11 09:10:45;;;;;;;0.20;0.20;;;7.30;99.90;;;;;;5034057;28;20206;-86
2021/04/11 09:13:21;;;;;;;0.20;0.20;;;7.40;99.90;;;;;;5034356;28;20239;-85
2021/04/11 09:16:27;;;;;;;0.32;0.32;;;7.40;99.90;;;;;;5033003;28;20195;-87
2021/04/11 09:19:30;;;;;;;0.73;0.73;;;7.40;99.90;;;;;;5031267;28;20258;-79
2021/04/11 09:22:23;;;;;;;0.20;0.20;;;7.40;99.90;;;;;;5032780;28;20179;-78
2021/04/11 09:25:07;;;;;;;0.75;0.43;;;7.30;99.90;;;;;;5033800;28;20207;-78
2021/04/11 09:27:41;;;;;;;0.35;0.35;;;7.50;99.90;;;;;;5048212;28;20191;-79
2021/04/11 09:30:34;;;;;;;0.10;0.10;;;7.70;99.90;;;;;;5052132;28;20562;-79
2021/04/11 09:33:08;;;;;;;0.10;0.10;;;7.70;99.90;;;;;;5051135;28;20682;-79
2021/04/11 09:35:54;;;;;;;0.32;0.32;;;8.20;99.90;;;;;;5053267;28;20229;-79
2021/04/11 09:38:38;;;;;;;0.20;0.20;;;8.30;99.90;;;;;;5051025;28;20202;-78
2021/04/11 09:41:22;;;;;;;0.10;0.10;;;8.20;99.90;;;;;;5049807;28;20171;-79
2021/04/11 09:44:19;;;;;;;0.20;0.20;;;8.20;99.90;;;;;;5053126;28;20194;-78
2021/04/11 09:46:57;;;;;;;0.20;0.20;;;8.30;99.90;;;;;;5038333;28;20203;-78
2021/04/11 09:49:40;;;;;;;0.30;0.30;;;7.90;99.90;;;;;;5053436;28;20207;-79
2021/04/11 09:52:20;;;;;;;1.05;0.85;;;7.90;99.90;;;;;;5053413;28;20186;-79
2021/04/11 09:55:10;;;;;;;2.72;1.40;;;7.90;99.90;;;;;;5053074;28;20262;-78
2021/04/11 09:57:58;;;;;;;0.10;0.10;;;7.80;99.90;;;;;;5052965;28;20186;-78
2021/04/11 10:00:30;;;;;;;0.20;0.20;;;8.00;99.90;;;;;;5053198;28;20154;-79
2021/04/11 10:03:05;;;;;;;0.90;0.90;;;7.90;99.90;;;;;;5051886;28;20540;-79
2021/04/11 10:05:33;;;;;;;0.10;0.10;;;7.70;99.90;;;;;;5052740;28;20233;-79
2021/04/11 10:08:20;;;;;;;0.20;0.20;;;7.80;99.90;;;;;;5052650;28;20206;-79
2021/04/11 10:11:10;;;;;;;0.20;0.20;;;7.70;99.90;;;;;;5052977;28;20148;-79
2021/04/11 10:14:13;;;;;;;0.10;0.10;;;7.70;99.90;;;;;;5052242;28;20203;-78
2021/04/11 10:17:00;;;;;;;0.10;0.10;;;8.10;99.90;;;;;;5051516;28;20187;-80
2021/04/11 10:19:47;;;;;;;0.20;0.20;;;8.50;99.90;;;;;;5051044;28;20261;-80
2021/04/11 10:22:37;;;;;;;0.30;0.30;;;8.70;99.90;;;;;;5052536;28;20256;-79
2021/04/11 10:25:18;;;;;;;0.10;0.10;;;8.90;99.90;;;;;;5052760;28;20255;-79
2021/04/11 10:28:23;;;;;;;0.10;0.10;;;8.80;99.90;;;;;;5051433;28;20174;-79
2021/04/11 10:31:22;;;;;;;0.52;0.52;;;8.70;99.90;;;;;;4987044;28;20181;-79
2021/04/11 10:34:06;;;;;;;0.30;0.30;;;8.70;99.90;;;;;;4971828;28;20222;-79
2021/04/11 10:36:45;;;;;;;0.22;0.22;;;8.40;99.90;;;;;;5021474;28;20694;-79
2021/04/11 10:39:22;;;;;;;0.20;0.20;;;8.20;99.90;;;;;;5048449;28;20175;-79
2021/04/11 10:42:12;;;;;;;0.35;0.35;;;8.30;99.90;;;;;;5052207;28;20242;-78
2021/04/11 10:44:47;;;;;;;1.48;1.05;;;8.00;99.90;;;;;;5053997;28;20182;-78
2021/04/11 10:47:41;;;;;;;0.20;0.20;;;7.80;99.90;;;;;;5032288;28;20179;-79
2021/04/11 10:50:16;;;;;;;0.50;0.50;;;7.70;99.90;;;;;;5032310;28;20164;-80
2021/04/11 10:52:57;;;;;;;0.10;0.10;;;7.50;99.90;;;;;;5032330;28;20194;-79
2021/04/11 10:55:44;;;;;;;0.20;0.20;;;7.60;99.90;;;;;;5032379;28;20171;-79
2021/04/11 10:58:31;;;;;;;0.50;0.50;;;7.60;99.90;;;;;;5030987;28;20176;-79
2021/04/11 11:01:12;;;;;;;0.10;0.10;;;7.50;99.90;;;;;;5032350;28;20171;-78
2021/04/11 11:04:18;;;;;;;0.17;0.17;;;7.70;99.90;;;;;;5032645;28;20207;-79
2021/04/11 11:07:21;;;;;;;2.85;0.32;;;7.80;99.90;;;;;;5032048;28;20702;-79
2021/04/11 11:10:04;;;;;;;0.20;0.20;;;7.80;99.90;;;;;;5032554;28;20619;-79
2021/04/11 11:12:48;;;;;;;0.20;0.20;;;7.70;99.90;;;;;;5032084;28;20492;-79
2021/04/11 11:15:33;;;;;;;0.30;0.30;;;8.00;99.90;;;;;;5036110;28;20178;-80
2021/04/11 11:18:36;;;;;;;0.20;0.20;;;8.20;99.90;;;;;;5041711;28;20175;-79
2021/04/11 11:21:29;;;;;;;1.10;1.02;;;8.50;99.90;;;;;;5054846;28;20170;-79
2021/04/11 11:24:20;;;;;;;0.28;0.28;;;8.90;99.90;;;;;;5012211;28;20196;-80
2021/04/11 11:27:16;;;;;;;0.65;0.65;;;9.00;99.90;;;;;;5034356;28;20187;-80
2021/04/11 11:30:06;;;;;;;0.22;0.22;;;9.10;99.90;;;;;;5066287;28;20175;-79
2021/04/11 11:32:56;;;;;;;0.13;0.13;;;9.30;99.90;;;;;;5072141;28;20808;-78
2021/04/11 11:35:24;;;;;;;0.40;0.40;;;9.20;99.90;;;;;;5061283;28;20195;-79
2021/04/11 11:38:20;;;;;;;0.20;0.20;;;9.40;99.90;;;;;;5058950;28;20190;-78
2021/04/11 11:41:10;;;;;;;0.10;0.10;;;9.20;99.90;;;;;;5070835;28;20258;-78
2021/04/11 11:44:08;;;;;;;0.30;0.30;;;9.40;99.90;;;;;;5056809;28;20179;-79
2021/04/11 11:46:48;;;;;;;0.30;0.30;;;9.20;99.90;;;;;;5074503;28;20198;-78
2021/04/11 11:49:46;;;;;;;0.40;0.40;;;9.00;99.90;;;;;;5059594;28;20182;-78
2021/04/11 11:52:23;;;;;;;0.50;0.50;;;9.10;99.90;;;;;;5061006;28;20236;-79
2021/04/11 11:55:04;;;;;;;0.20;0.20;;;8.80;99.90;;;;;;5061554;28;20565;-77
2021/04/11 11:57:49;;;;;;;4.47;1.23;;;8.80;99.90;;;;;;5068575;28;20209;-77
2021/04/11 12:00:17;;;;;;;1.10;0.40;;;8.90;99.90;;;;;;5058685;28;20501;-78
2021/04/11 12:02:55;;;;;;;0.30;0.30;;;9.00;99.90;;;;;;5060545;28;20195;-78
2021/04/11 12:05:40;;;;;;;0.20;0.20;;;9.20;99.90;;;;;;5042606;28;20612;-80
2021/04/11 12:08:22;;;;;;;3.78;2.58;;;9.50;99.90;;;;;;5064312;28;20187;-78
2021/04/11 12:10:57;;;;;;;0.20;0.20;;;9.40;99.90;;;;;;5058454;28;20202;-79
2021/04/11 12:14:04;;;;;;;0.28;0.28;;;9.40;99.90;;;;;;5053692;28;20210;-79
2021/04/11 12:16:42;;;;;;;0.20;0.20;;;9.30;99.90;;;;;;5044180;28;20195;-80
2021/04/11 12:19:19;;;;;;;0.30;0.30;;;9.40;99.90;;;;;;5055164;28;20202;-80
2021/04/11 12:21:51;;;;;;;0.32;0.32;;;9.40;99.90;;;;;;5055239;28;20171;-79
2021/04/11 12:24:31;;;;;;;0.22;0.22;;;9.50;99.90;;;;;;5054414;28;20159;-84
2021/04/11 12:26:59;;;;;;;0.30;0.30;;;9.40;99.90;;;;;;5058330;28;20563;-82
2021/04/11 12:29:29;;;;;;;0.45;0.45;;;9.30;99.90;;;;;;5052976;28;20171;-78
2021/04/11 12:31:58;;;;;;;0.40;0.40;;;9.60;99.90;;;;;;5054678;28;20167;-79
2021/04/11 12:34:26;;;;;;;0.28;0.28;;;9.60;99.90;;;;;;5056949;28;20221;-79
2021/04/11 12:37:15;;;;;;;0.30;0.30;;;9.70;99.90;;;;;;5064435;28;20311;-80
2021/04/11 12:39:41;;;;;;;0.30;0.30;;;9.60;99.90;;;;;;5068298;28;20254;-78
2021/04/11 12:42:30;;;;;;;0.20;0.20;;;9.40;99.90;;;;;;5054480;28;20167;-78
2021/04/11 12:45:26;;;;;;;0.20;0.20;;;9.40;99.90;;;;;;5054664;28;20170;-78
2021/04/11 12:48:03;;;;;;;0.20;0.20;;;9.40;99.90;;;;;;5053814;28;20171;-78
2021/04/11 12:50:54;;;;;;;0.20;0.20;;;9.50;99.90;;;;;;5054361;28;20418;-79
2021/04/11 12:53:31;;;;;;;0.20;0.20;;;9.90;99.90;;;;;;5052913;28;20317;-78
2021/04/11 12:56:04;;;;;;;0.40;0.40;;;10.00;99.90;;;;;;5053348;28;20535;-78
2021/04/11 12:58:35;;;;;;;0.30;0.30;;;9.50;99.90;;;;;;5054419;28;20189;-78
2021/04/11 13:01:13;;;;;;;0.28;0.28;;;9.40;99.90;;;;;;5054084;28;20159;-77
2021/04/11 13:04:05;;;;;;;0.20;0.20;;;9.10;99.90;;;;;;5054062;28;20214;-77
2021/04/11 13:06:42;;;;;;;0.30;0.30;;;9.20;99.90;;;;;;5042198;28;20207;-78
2021/04/11 13:09:52;;;;;;;0.73;0.73;;;9.50;99.90;;;;;;5032944;28;20168;-77
2021/04/11 13:12:32;;;;;;;0.20;0.20;;;9.70;99.90;;;;;;5034019;28;20249;-78
2021/04/11 13:15:04;;;;;;;12.88;0.63;;;9.60;99.90;;;;;;5032861;28;20539;-78
2021/04/11 13:17:41;;;;;;;0.20;0.20;;;10.00;99.90;;;;;;5033686;28;20188;-77
2021/04/11 13:20:20;;;;;;;2.05;0.35;;;10.30;99.90;;;;;;5034123;28;20210;-77
2021/04/11 13:23:33;;;;;;;1.05;1.00;;;10.40;99.90;;;;;;5034068;28;20218;-79
2021/04/11 13:26:13;;;;;;;0.20;0.20;;;10.00;99.90;;;;;;5024285;28;20207;-79
2021/04/11 13:29:04;;;;;;;0.20;0.20;;;10.10;99.90;;;;;;5032571;28;20187;-77
2021/04/11 13:31:54;;;;;;;0.40;0.40;;;10.10;99.90;;;;;;5033618;28;20609;-77
2021/04/11 13:35:08;;;;;;;0.45;0.45;;;10.10;99.90;;;;;;5033721;28;20203;-78
2021/04/11 13:37:44;;;;;;;0.73;0.73;;;9.80;99.90;;;;;;5005860;28;20217;-79
2021/04/11 13:40:20;;;;;;;0.60;0.40;;;9.30;99.90;;;;;;5033739;28;20174;-78
2021/04/11 13:43:13;;;;;;;0.47;0.47;;;9.40;99.90;;;;;;5033451;28;20609;-77
2021/04/11 13:45:51;;;;;;;0.20;0.20;;;9.30;99.90;;;;;;5033524;28;20214;-78
2021/04/11 13:48:25;;;;;;;0.20;0.20;;;9.60;99.90;;;;;;5033506;28;20533;-77
2021/04/11 13:51:26;;;;;;;0.20;0.20;;;9.80;99.90;;;;;;5033039;28;20160;-78
2021/04/11 13:54:00;;;;;;;0.22;0.22;;;9.90;99.90;;;;;;5033586;28;20651;-75
2021/04/11 13:56:34;;;;;;;0.20;0.20;;;10.20;99.90;;;;;;5031329;28;20199;-78
2021/04/11 13:59:11;;;;;;;0.10;0.10;;;10.20;99.90;;;;;;5032946;28;20215;-76
2021/04/11 14:01:56;;;;;;;1.40;0.98;;;10.40;99.90;;;;;;5032721;28;20167;-78